sensor_id;sensor_type;location;lat;lon;timestamp;temperature;humidity
18388;DHT22;9320;50.256;19.026;2022-10-26T00:00:32;12.60;99.90
18388;DHT22;9320;50.256;19.026;2022-10-26T00:03:00;12.60;99.90
18388;DHT22;9320;50.256;19.026;2022-10-26T00:05:31;12.60;99.90
18388;DHT22;9320;50.256;19.026;2022-10-26T00:08:00;12.60;99.90
18388;DHT22;9320;50.256;19.026;2022-10-26T00:10:28;12.50;99.90
18388;DHT22;9320;50.256;19.026;2022-10-26T00:12:57;12.60;99.90
18388;DHT22;9320;50.256;19.026;2022-10-26T00:15:25;12.50;99.90
18388;DHT22;9320;50.256;19.026;2022-10-26T00:17:53;12.50;99.90
18388;DHT22;9320;50.256;19.026;2022-10-26T00:20:21;12.40;99.90
18388;DHT22;9320;50.256;19.026;2022-10-26T00:22:51;12.40;99.90
18388;DHT22;9320;50.256;19.026;2022-10-26T00:25:19;12.40;99.90
18388;DHT22;9320;50.256;19.026;2022-10-26T00:27:46;12.40;99.90
18388;DHT22;9320;50.256;19.026;2022-10-26T00:30:15;12.40;99.90
18388;DHT22;9320;50.256;19.026;2022-10-26T00:32:43;12.40;99.90
18388;DHT22;9320;50.256;19.026;2022-10-26T00:35:11;12.40;99.90
18388;DHT22;9320;50.256;19.026;2022-10-26T00:37:54;12.30;99.90
18388;DHT22;9320;50.256;19.026;2022-10-26T00:40:26;12.30;99.90
18388;DHT22;9320;50.256;19.026;2022-10-26T00:42:54;12.30;99.90
18388;DHT22;9320;50.256;19.026;2022-10-26T00:45:24;12.30;99.90
18388;DHT22;9320;50.256;19.026;2022-10-26T00:47:56;12.30;99.90
18388;DHT22;9320;50.256;19.026;2022-10-26T00:50:28;12.30;99.90
18388;DHT22;9320;50.256;19.026;2022-10-26T00:52:58;12.30;99.90
18388;DHT22;9320;50.256;19.026;2022-10-26T00:55:30;12.20;99.90
18388;DHT22;9320;50.256;19.026;2022-10-26T00:58:00;12.20;99.90
18388;DHT22;9320;50.256;19.026;2022-10-26T01:00:29;12.20;99.90
18388;DHT22;9320;50.256;19.026;2022-10-26T01:03:00;12.20;99.90
18388;DHT22;9320;50.256;19.026;2022-10-26T01:05:29;12.10;99.90
18388;DHT22;9320;50.256;19.026;2022-10-26T01:08:00;12.10;99.90
18388;DHT22;9320;50.256;19.026;2022-10-26T01:10:28;12.10;99.90
18388;DHT22;9320;50.256;19.026;2022-10-26T01:12:57;12.10;99.90
18388;DHT22;9320;50.256;19.026;2022-10-26T01:15:36;12.10;99.90
18388;DHT22;9320;50.256;19.026;2022-10-26T01:18:09;12.10;99.90
18388;DHT22;9320;50.256;19.026;2022-10-26T01:23:55;12.10;99.90
18388;DHT22;9320;50.256;19.026;2022-10-26T01:26:46;12.00;99.90
18388;DHT22;9320;50.256;19.026;2022-10-26T01:32:23;12.00;99.90
18388;DHT22;9320;50.256;19.026;2022-10-26T01:34:58;11.90;99.90
18388;DHT22;9320;50.256;19.026;2022-10-26T01:37:35;11.90;99.90
18388;DHT22;9320;50.256;19.026;2022-10-26T01:40:09;11.80;99.90
18388;DHT22;9320;50.256;19.026;2022-10-26T01:42:41;11.80;99.90
18388;DHT22;9320;50.256;19.026;2022-10-26T01:45:14;11.70;99.90
18388;DHT22;9320;50.256;19.026;2022-10-26T01:47:45;11.70;99.90
18388;DHT22;9320;50.256;19.026;2022-10-26T01:50:16;11.70;99.90
18388;DHT22;9320;50.256;19.026;2022-10-26T01:52:48;11.70;99.90
18388;DHT22;9320;50.256;19.026;2022-10-26T01:55:39;11.60;99.90
18388;DHT22;9320;50.256;19.026;2022-10-26T01:58:15;11.70;99.90
18388;DHT22;9320;50.256;19.026;2022-10-26T02:00:55;11.60;99.90
18388;DHT22;9320;50.256;19.026;2022-10-26T02:03:30;11.60;99.90
18388;DHT22;9320;50.256;19.026;2022-10-26T02:06:06;11.50;99.90
18388;DHT22;9320;50.256;19.026;2022-10-26T02:08:50;11.50;99.90
18388;DHT22;9320;50.256;19.026;2022-10-26T02:11:26;11.60;99.90
18388;DHT22;9320;50.256;19.026;2022-10-26T02:14:06;11.70;99.90
18388;DHT22;9320;50.256;19.026;2022-10-26T02:16:40;11.70;99.90
18388;DHT22;9320;50.256;19.026;2022-10-26T02:19:21;11.90;99.90
18388;DHT22;9320;50.256;19.026;2022-10-26T02:21:55;11.90;99.90
18388;DHT22;9320;50.256;19.026;2022-10-26T02:24:26;11.90;99.90
18388;DHT22;9320;50.256;19.026;2022-10-26T02:26:55;11.90;99.90
18388;DHT22;9320;50.256;19.026;2022-10-26T02:29:24;11.90;99.90
18388;DHT22;9320;50.256;19.026;2022-10-26T02:31:54;11.80;99.90
18388;DHT22;9320;50.256;19.026;2022-10-26T02:34:26;11.70;99.90
18388;DHT22;9320;50.256;19.026;2022-10-26T02:36:57;11.60;99.90
18388;DHT22;9320;50.256;19.026;2022-10-26T02:39:29;11.50;99.90
18388;DHT22;9320;50.256;19.026;2022-10-26T02:42:00;11.40;99.90
18388;DHT22;9320;50.256;19.026;2022-10-26T02:44:32;11.40;99.90
18388;DHT22;9320;50.256;19.026;2022-10-26T02:47:01;11.30;99.90
18388;DHT22;9320;50.256;19.026;2022-10-26T02:49:31;11.40;99.90
18388;DHT22;9320;50.256;19.026;2022-10-26T02:52:03;11.50;99.90
18388;DHT22;9320;50.256;19.026;2022-10-26T02:54:38;11.50;99.90
18388;DHT22;9320;50.256;19.026;2022-10-26T02:57:11;11.50;99.90
18388;DHT22;9320;50.256;19.026;2022-10-26T02:59:43;11.50;99.90
18388;DHT22;9320;50.256;19.026;2022-10-26T03:02:14;11.70;99.90
18388;DHT22;9320;50.256;19.026;2022-10-26T03:04:44;11.60;99.90
18388;DHT22;9320;50.256;19.026;2022-10-26T03:07:12;11.60;99.90
18388;DHT22;9320;50.256;19.026;2022-10-26T03:09:40;11.70;99.90
18388;DHT22;9320;50.256;19.026;2022-10-26T03:12:08;11.80;99.90
18388;DHT22;9320;50.256;19.026;2022-10-26T03:14:36;11.70;99.90
18388;DHT22;9320;50.256;19.026;2022-10-26T03:17:04;11.80;99.90
18388;DHT22;9320;50.256;19.026;2022-10-26T03:19:32;11.90;99.90
18388;DHT22;9320;50.256;19.026;2022-10-26T03:22:01;11.90;99.90
18388;DHT22;9320;50.256;19.026;2022-10-26T03:24:29;12.10;99.90
18388;DHT22;9320;50.256;19.026;2022-10-26T03:26:57;12.10;99.90
18388;DHT22;9320;50.256;19.026;2022-10-26T03:29:28;12.10;99.90
18388;DHT22;9320;50.256;19.026;2022-10-26T03:31:56;11.90;99.90
18388;DHT22;9320;50.256;19.026;2022-10-26T03:34:24;11.90;99.90
18388;DHT22;9320;50.256;19.026;2022-10-26T03:36:52;11.80;99.90
18388;DHT22;9320;50.256;19.026;2022-10-26T03:39:21;11.80;99.90
18388;DHT22;9320;50.256;19.026;2022-10-26T03:41:49;11.80;99.90
18388;DHT22;9320;50.256;19.026;2022-10-26T03:44:17;11.80;99.90
18388;DHT22;9320;50.256;19.026;2022-10-26T03:46:45;11.80;99.90
18388;DHT22;9320;50.256;19.026;2022-10-26T03:49:13;11.80;99.90
18388;DHT22;9320;50.256;19.026;2022-10-26T03:51:41;11.70;99.90
18388;DHT22;9320;50.256;19.026;2022-10-26T03:54:09;11.60;99.90
18388;DHT22;9320;50.256;19.026;2022-10-26T03:56:38;11.60;99.90
18388;DHT22;9320;50.256;19.026;2022-10-26T03:59:06;11.60;99.90
18388;DHT22;9320;50.256;19.026;2022-10-26T04:01:34;11.60;99.90
18388;DHT22;9320;50.256;19.026;2022-10-26T04:04:02;11.60;99.90
18388;DHT22;9320;50.256;19.026;2022-10-26T04:06:30;11.60;99.90
18388;DHT22;9320;50.256;19.026;2022-10-26T04:08:58;11.60;99.90
18388;DHT22;9320;50.256;19.026;2022-10-26T04:11:28;11.60;99.90
18388;DHT22;9320;50.256;19.026;2022-10-26T04:13:57;11.50;99.90
18388;DHT22;9320;50.256;19.026;2022-10-26T04:16:26;11.60;99.90
18388;DHT22;9320;50.256;19.026;2022-10-26T04:18:59;11.60;99.90
18388;DHT22;9320;50.256;19.026;2022-10-26T04:21:27;11.60;99.90
18388;DHT22;9320;50.256;19.026;2022-10-26T04:23:55;11.60;99.90
18388;DHT22;9320;50.256;19.026;2022-10-26T04:26:23;11.50;99.90
18388;DHT22;9320;50.256;19.026;2022-10-26T04:28:51;11.70;99.90
18388;DHT22;9320;50.256;19.026;2022-10-26T04:31:21;11.60;99.90
18388;DHT22;9320;50.256;19.026;2022-10-26T04:33:49;11.60;99.90
18388;DHT22;9320;50.256;19.026;2022-10-26T04:36:17;11.60;99.90
18388;DHT22;9320;50.256;19.026;2022-10-26T04:38:46;11.70;99.90
18388;DHT22;9320;50.256;19.026;2022-10-26T04:41:15;11.60;99.90
18388;DHT22;9320;50.256;19.026;2022-10-26T04:43:42;11.60;99.90
18388;DHT22;9320;50.256;19.026;2022-10-26T04:46:10;11.50;99.90
18388;DHT22;9320;50.256;19.026;2022-10-26T04:48:43;11.50;99.90
18388;DHT22;9320;50.256;19.026;2022-10-26T04:51:11;11.40;99.90
18388;DHT22;9320;50.256;19.026;2022-10-26T04:53:39;11.40;99.90
18388;DHT22;9320;50.256;19.026;2022-10-26T04:56:07;11.40;99.90
18388;DHT22;9320;50.256;19.026;2022-10-26T04:58:35;11.40;99.90
18388;DHT22;9320;50.256;19.026;2022-10-26T05:01:04;11.40;99.90
18388;DHT22;9320;50.256;19.026;2022-10-26T05:03:32;11.40;99.90
18388;DHT22;9320;50.256;19.026;2022-10-26T05:06:01;11.40;99.90
18388;DHT22;9320;50.256;19.026;2022-10-26T05:08:29;11.40;99.90
18388;DHT22;9320;50.256;19.026;2022-10-26T05:10:57;11.40;99.90
18388;DHT22;9320;50.256;19.026;2022-10-26T05:13:25;11.30;99.90
18388;DHT22;9320;50.256;19.026;2022-10-26T05:15:58;11.30;99.90
18388;DHT22;9320;50.256;19.026;2022-10-26T05:18:26;11.20;99.90
18388;DHT22;9320;50.256;19.026;2022-10-26T05:20:54;11.30;99.90
18388;DHT22;9320;50.256;19.026;2022-10-26T05:23:23;11.30;99.90
18388;DHT22;9320;50.256;19.026;2022-10-26T05:25:51;11.30;99.90
18388;DHT22;9320;50.256;19.026;2022-10-26T05:28:21;11.20;99.90
18388;DHT22;9320;50.256;19.026;2022-10-26T05:30:49;11.10;99.90
18388;DHT22;9320;50.256;19.026;2022-10-26T05:33:17;11.10;99.90
18388;DHT22;9320;50.256;19.026;2022-10-26T05:35:46;11.20;99.90
18388;DHT22;9320;50.256;19.026;2022-10-26T05:38:16;11.20;99.90
18388;DHT22;9320;50.256;19.026;2022-10-26T05:40:50;11.10;99.90
18388;DHT22;9320;50.256;19.026;2022-10-26T05:43:20;11.20;99.90
18388;DHT22;9320;50.256;19.026;2022-10-26T05:45:49;11.10;99.90
18388;DHT22;9320;50.256;19.026;2022-10-26T05:48:17;11.40;99.90
18388;DHT22;9320;50.256;19.026;2022-10-26T05:50:45;11.20;99.90
18388;DHT22;9320;50.256;19.026;2022-10-26T05:53:14;11.20;99.90
18388;DHT22;9320;50.256;19.026;2022-10-26T05:55:45;11.20;99.90
18388;DHT22;9320;50.256;19.026;2022-10-26T05:58:15;11.10;99.90
18388;DHT22;9320;50.256;19.026;2022-10-26T06:00:53;11.10;99.90
18388;DHT22;9320;50.256;19.026;2022-10-26T06:03:37;11.20;99.90
18388;DHT22;9320;50.256;19.026;2022-10-26T06:06:07;11.20;99.90
18388;DHT22;9320;50.256;19.026;2022-10-26T06:08:39;11.20;99.90
18388;DHT22;9320;50.256;19.026;2022-10-26T06:11:09;11.20;99.90
18388;DHT22;9320;50.256;19.026;2022-10-26T06:13:39;11.20;99.90
18388;DHT22;9320;50.256;19.026;2022-10-26T06:16:20;11.30;99.90
18388;DHT22;9320;50.256;19.026;2022-10-26T06:18:58;11.30;99.90
18388;DHT22;9320;50.256;19.026;2022-10-26T06:21:40;11.30;99.90
18388;DHT22;9320;50.256;19.026;2022-10-26T06:24:17;11.50;99.90
18388;DHT22;9320;50.256;19.026;2022-10-26T06:26:53;11.50;99.90
18388;DHT22;9320;50.256;19.026;2022-10-26T06:29:35;11.50;99.90
18388;DHT22;9320;50.256;19.026;2022-10-26T06:32:06;11.50;99.90
18388;DHT22;9320;50.256;19.026;2022-10-26T06:34:36;11.60;99.90
18388;DHT22;9320;50.256;19.026;2022-10-26T06:37:06;11.60;99.90
18388;DHT22;9320;50.256;19.026;2022-10-26T06:39:36;11.50;99.90
18388;DHT22;9320;50.256;19.026;2022-10-26T06:42:08;11.60;99.90
18388;DHT22;9320;50.256;19.026;2022-10-26T06:44:39;11.60;99.90
18388;DHT22;9320;50.256;19.026;2022-10-26T06:47:12;11.70;99.90
18388;DHT22;9320;50.256;19.026;2022-10-26T06:49:56;11.70;99.90
18388;DHT22;9320;50.256;19.026;2022-10-26T06:52:31;11.80;99.90
18388;DHT22;9320;50.256;19.026;2022-10-26T06:55:00;11.80;99.90
18388;DHT22;9320;50.256;19.026;2022-10-26T06:57:33;11.70;99.90
18388;DHT22;9320;50.256;19.026;2022-10-26T07:00:04;11.80;99.90
18388;DHT22;9320;50.256;19.026;2022-10-26T07:02:43;11.80;99.90
18388;DHT22;9320;50.256;19.026;2022-10-26T07:05:12;11.80;99.90
18388;DHT22;9320;50.256;19.026;2022-10-26T07:07:41;11.90;99.90
18388;DHT22;9320;50.256;19.026;2022-10-26T07:10:10;11.90;99.90
18388;DHT22;9320;50.256;19.026;2022-10-26T07:12:39;12.00;99.90
18388;DHT22;9320;50.256;19.026;2022-10-26T07:15:09;11.90;99.90
18388;DHT22;9320;50.256;19.026;2022-10-26T07:17:44;12.00;99.90
18388;DHT22;9320;50.256;19.026;2022-10-26T07:20:14;12.00;99.90
18388;DHT22;9320;50.256;19.026;2022-10-26T07:22:43;12.10;99.90
18388;DHT22;9320;50.256;19.026;2022-10-26T07:25:11;12.10;99.90
18388;DHT22;9320;50.256;19.026;2022-10-26T07:27:39;12.20;99.90
18388;DHT22;9320;50.256;19.026;2022-10-26T07:30:10;12.30;99.90
18388;DHT22;9320;50.256;19.026;2022-10-26T07:32:38;12.40;99.90
18388;DHT22;9320;50.256;19.026;2022-10-26T07:35:07;12.50;99.90
18388;DHT22;9320;50.256;19.026;2022-10-26T07:37:35;12.60;99.90
18388;DHT22;9320;50.256;19.026;2022-10-26T07:40:04;12.60;99.90
18388;DHT22;9320;50.256;19.026;2022-10-26T07:42:33;12.70;99.90
18388;DHT22;9320;50.256;19.026;2022-10-26T07:45:04;12.80;99.90
18388;DHT22;9320;50.256;19.026;2022-10-26T07:47:33;12.90;99.90
18388;DHT22;9320;50.256;19.026;2022-10-26T07:50:01;12.90;99.90
18388;DHT22;9320;50.256;19.026;2022-10-26T07:52:30;13.00;99.90
18388;DHT22;9320;50.256;19.026;2022-10-26T07:55:00;13.10;99.90
18388;DHT22;9320;50.256;19.026;2022-10-26T07:57:28;13.10;99.90
18388;DHT22;9320;50.256;19.026;2022-10-26T07:59:56;13.20;99.90
18388;DHT22;9320;50.256;19.026;2022-10-26T08:02:24;13.20;99.90
18388;DHT22;9320;50.256;19.026;2022-10-26T08:04:53;13.30;99.90
18388;DHT22;9320;50.256;19.026;2022-10-26T08:07:21;13.40;99.90
18388;DHT22;9320;50.256;19.026;2022-10-26T08:09:51;13.50;99.90
18388;DHT22;9320;50.256;19.026;2022-10-26T08:12:19;13.50;99.90
18388;DHT22;9320;50.256;19.026;2022-10-26T08:14:47;13.50;99.90
18388;DHT22;9320;50.256;19.026;2022-10-26T08:17:15;13.60;99.90
18388;DHT22;9320;50.256;19.026;2022-10-26T08:19:46;13.60;99.90
18388;DHT22;9320;50.256;19.026;2022-10-26T08:22:16;13.70;99.90
18388;DHT22;9320;50.256;19.026;2022-10-26T08:24:44;13.80;99.90
18388;DHT22;9320;50.256;19.026;2022-10-26T08:27:12;13.80;99.90
18388;DHT22;9320;50.256;19.026;2022-10-26T08:29:41;13.90;99.90
18388;DHT22;9320;50.256;19.026;2022-10-26T08:32:09;14.00;99.90
18388;DHT22;9320;50.256;19.026;2022-10-26T08:34:37;14.00;99.90
18388;DHT22;9320;50.256;19.026;2022-10-26T08:37:05;14.10;99.90
18388;DHT22;9320;50.256;19.026;2022-10-26T08:39:34;14.20;99.90
18388;DHT22;9320;50.256;19.026;2022-10-26T08:42:09;14.20;99.90
18388;DHT22;9320;50.256;19.026;2022-10-26T08:44:43;14.30;99.90
18388;DHT22;9320;50.256;19.026;2022-10-26T08:47:16;14.30;99.90
18388;DHT22;9320;50.256;19.026;2022-10-26T08:49:49;14.30;99.90
18388;DHT22;9320;50.256;19.026;2022-10-26T08:52:29;14.40;99.90
18388;DHT22;9320;50.256;19.026;2022-10-26T08:55:02;14.40;99.90
18388;DHT22;9320;50.256;19.026;2022-10-26T08:57:34;14.50;99.90
18388;DHT22;9320;50.256;19.026;2022-10-26T09:00:06;14.50;99.90
18388;DHT22;9320;50.256;19.026;2022-10-26T09:02:37;14.60;99.90
18388;DHT22;9320;50.256;19.026;2022-10-26T09:05:13;14.70;99.90
18388;DHT22;9320;50.256;19.026;2022-10-26T09:07:49;14.70;99.90
18388;DHT22;9320;50.256;19.026;2022-10-26T09:10:37;14.70;99.90
18388;DHT22;9320;50.256;19.026;2022-10-26T09:13:14;14.80;99.90
18388;DHT22;9320;50.256;19.026;2022-10-26T09:15:52;14.90;99.90
18388;DHT22;9320;50.256;19.026;2022-10-26T09:18:30;15.00;99.90
18388;DHT22;9320;50.256;19.026;2022-10-26T09:21:12;15.10;99.90
18388;DHT22;9320;50.256;19.026;2022-10-26T09:23:54;15.10;99.90
18388;DHT22;9320;50.256;19.026;2022-10-26T09:26:32;15.10;99.90
18388;DHT22;9320;50.256;19.026;2022-10-26T09:29:06;15.20;99.90
18388;DHT22;9320;50.256;19.026;2022-10-26T09:31:40;15.30;99.90
18388;DHT22;9320;50.256;19.026;2022-10-26T09:34:18;15.40;99.90
18388;DHT22;9320;50.256;19.026;2022-10-26T09:36:52;15.50;99.90
18388;DHT22;9320;50.256;19.026;2022-10-26T09:39:25;15.60;99.90
18388;DHT22;9320;50.256;19.026;2022-10-26T09:42:05;15.60;99.90
18388;DHT22;9320;50.256;19.026;2022-10-26T09:44:38;15.60;99.90
18388;DHT22;9320;50.256;19.026;2022-10-26T09:47:13;15.70;99.90
18388;DHT22;9320;50.256;19.026;2022-10-26T09:49:44;15.70;99.90
18388;DHT22;9320;50.256;19.026;2022-10-26T09:52:15;15.80;99.90
18388;DHT22;9320;50.256;19.026;2022-10-26T09:54:43;15.90;99.90
18388;DHT22;9320;50.256;19.026;2022-10-26T09:57:14;15.90;99.90
18388;DHT22;9320;50.256;19.026;2022-10-26T09:59:43;15.90;99.90
18388;DHT22;9320;50.256;19.026;2022-10-26T10:02:32;16.00;99.90
18388;DHT22;9320;50.256;19.026;2022-10-26T10:05:01;16.10;99.90
18388;DHT22;9320;50.256;19.026;2022-10-26T10:07:29;16.20;99.90
18388;DHT22;9320;50.256;19.026;2022-10-26T10:10:08;16.20;99.90
18388;DHT22;9320;50.256;19.026;2022-10-26T10:12:41;16.50;99.90
18388;DHT22;9320;50.256;19.026;2022-10-26T10:15:17;17.00;99.90
18388;DHT22;9320;50.256;19.026;2022-10-26T10:17:49;17.20;99.90
18388;DHT22;9320;50.256;19.026;2022-10-26T10:20:21;17.40;99.90
18388;DHT22;9320;50.256;19.026;2022-10-26T10:22:56;17.60;99.90
18388;DHT22;9320;50.256;19.026;2022-10-26T10:25:33;17.70;99.90
18388;DHT22;9320;50.256;19.026;2022-10-26T10:28:18;17.50;99.10
18388;DHT22;9320;50.256;19.026;2022-10-26T10:30:52;17.30;99.30
18388;DHT22;9320;50.256;19.026;2022-10-26T10:33:31;17.30;98.90
18388;DHT22;9320;50.256;19.026;2022-10-26T10:36:01;17.20;99.30
18388;DHT22;9320;50.256;19.026;2022-10-26T10:38:36;17.10;99.30
18388;DHT22;9320;50.256;19.026;2022-10-26T10:41:12;17.20;99.30
18388;DHT22;9320;50.256;19.026;2022-10-26T10:43:46;17.20;99.30
18388;DHT22;9320;50.256;19.026;2022-10-26T10:46:20;17.30;98.50
18388;DHT22;9320;50.256;19.026;2022-10-26T10:48:59;17.50;97.40
18388;DHT22;9320;50.256;19.026;2022-10-26T10:51:32;17.80;96.60
18388;DHT22;9320;50.256;19.026;2022-10-26T10:54:03;17.80;96.80
18388;DHT22;9320;50.256;19.026;2022-10-26T10:56:39;17.90;96.50
18388;DHT22;9320;50.256;19.026;2022-10-26T10:59:24;18.10;95.00
18388;DHT22;9320;50.256;19.026;2022-10-26T11:02:10;18.10;94.90
18388;DHT22;9320;50.256;19.026;2022-10-26T11:04:57;18.10;95.00
18388;DHT22;9320;50.256;19.026;2022-10-26T11:07:30;18.20;94.60
18388;DHT22;9320;50.256;19.026;2022-10-26T11:10:01;18.30;94.10
18388;DHT22;9320;50.256;19.026;2022-10-26T11:12:33;18.20;93.90
18388;DHT22;9320;50.256;19.026;2022-10-26T11:15:07;18.10;93.10
18388;DHT22;9320;50.256;19.026;2022-10-26T11:17:44;18.00;93.70
18388;DHT22;9320;50.256;19.026;2022-10-26T11:20:17;18.00;93.20
18388;DHT22;9320;50.256;19.026;2022-10-26T11:22:59;17.90;92.90
18388;DHT22;9320;50.256;19.026;2022-10-26T11:25:36;17.90;92.70
18388;DHT22;9320;50.256;19.026;2022-10-26T11:28:14;17.80;92.90
18388;DHT22;9320;50.256;19.026;2022-10-26T11:30:48;17.80;92.80
18388;DHT22;9320;50.256;19.026;2022-10-26T11:33:21;17.80;92.80
18388;DHT22;9320;50.256;19.026;2022-10-26T11:35:53;17.80;92.60
18388;DHT22;9320;50.256;19.026;2022-10-26T11:38:28;17.90;92.50
18388;DHT22;9320;50.256;19.026;2022-10-26T11:41:17;17.90;92.40
18388;DHT22;9320;50.256;19.026;2022-10-26T11:43:47;18.00;92.30
18388;DHT22;9320;50.256;19.026;2022-10-26T11:46:20;18.00;92.50
18388;DHT22;9320;50.256;19.026;2022-10-26T11:48:54;18.00;92.10
18388;DHT22;9320;50.256;19.026;2022-10-26T11:51:35;18.00;92.40
18388;DHT22;9320;50.256;19.026;2022-10-26T11:54:09;18.00;92.30
18388;DHT22;9320;50.256;19.026;2022-10-26T11:56:42;18.10;92.20
18388;DHT22;9320;50.256;19.026;2022-10-26T11:59:17;18.20;92.00
18388;DHT22;9320;50.256;19.026;2022-10-26T12:02:05;18.20;92.30
18388;DHT22;9320;50.256;19.026;2022-10-26T12:04:38;18.30;91.20
18388;DHT22;9320;50.256;19.026;2022-10-26T12:07:14;18.40;91.40
18388;DHT22;9320;50.256;19.026;2022-10-26T12:09:46;18.50;90.80
18388;DHT22;9320;50.256;19.026;2022-10-26T12:12:20;18.70;91.00
18388;DHT22;9320;50.256;19.026;2022-10-26T12:14:52;18.80;90.60
18388;DHT22;9320;50.256;19.026;2022-10-26T12:17:28;18.90;90.00
18388;DHT22;9320;50.256;19.026;2022-10-26T12:20:04;19.00;88.80
18388;DHT22;9320;50.256;19.026;2022-10-26T12:22:36;19.00;89.20
18388;DHT22;9320;50.256;19.026;2022-10-26T12:25:16;19.10;88.50
18388;DHT22;9320;50.256;19.026;2022-10-26T12:27:53;19.20;87.70
18388;DHT22;9320;50.256;19.026;2022-10-26T12:30:27;19.10;87.30
18388;DHT22;9320;50.256;19.026;2022-10-26T12:32:58;19.20;88.30
18388;DHT22;9320;50.256;19.026;2022-10-26T12:35:41;19.10;87.60
18388;DHT22;9320;50.256;19.026;2022-10-26T12:41:24;19.00;87.70
18388;DHT22;9320;50.256;19.026;2022-10-26T12:44:02;18.80;88.10
18388;DHT22;9320;50.256;19.026;2022-10-26T12:46:39;18.70;89.30
18388;DHT22;9320;50.256;19.026;2022-10-26T12:55:41;18.60;87.50
18388;DHT22;9320;50.256;19.026;2022-10-26T12:58:38;18.60;85.80
18388;DHT22;9320;50.256;19.026;2022-10-26T13:01:27;18.50;86.10
18388;DHT22;9320;50.256;19.026;2022-10-26T13:04:07;18.40;85.10
18388;DHT22;9320;50.256;19.026;2022-10-26T13:06:51;18.30;86.00
18388;DHT22;9320;50.256;19.026;2022-10-26T13:09:28;18.30;87.50
18388;DHT22;9320;50.256;19.026;2022-10-26T13:12:01;18.30;87.70
18388;DHT22;9320;50.256;19.026;2022-10-26T13:14:33;18.20;86.10
18388;DHT22;9320;50.256;19.026;2022-10-26T13:17:03;18.30;87.00
18388;DHT22;9320;50.256;19.026;2022-10-26T13:19:39;18.40;86.60
18388;DHT22;9320;50.256;19.026;2022-10-26T13:22:12;18.40;86.10
18388;DHT22;9320;50.256;19.026;2022-10-26T13:24:47;18.30;86.90
18388;DHT22;9320;50.256;19.026;2022-10-26T13:27:40;18.40;86.20
18388;DHT22;9320;50.256;19.026;2022-10-26T13:33:17;18.40;86.60
18388;DHT22;9320;50.256;19.026;2022-10-26T13:35:46;18.40;86.70
18388;DHT22;9320;50.256;19.026;2022-10-26T13:38:21;18.30;85.70
18388;DHT22;9320;50.256;19.026;2022-10-26T13:40:52;18.20;85.60
18388;DHT22;9320;50.256;19.026;2022-10-26T13:43:25;18.20;86.30
18388;DHT22;9320;50.256;19.026;2022-10-26T13:45:55;18.20;86.40
18388;DHT22;9320;50.256;19.026;2022-10-26T13:48:30;18.10;86.80
18388;DHT22;9320;50.256;19.026;2022-10-26T13:51:02;18.00;86.40
18388;DHT22;9320;50.256;19.026;2022-10-26T13:53:37;18.00;88.00
18388;DHT22;9320;50.256;19.026;2022-10-26T13:56:16;18.00;88.00
18388;DHT22;9320;50.256;19.026;2022-10-26T13:58:49;17.90;88.00
18388;DHT22;9320;50.256;19.026;2022-10-26T14:01:18;17.90;88.60
18388;DHT22;9320;50.256;19.026;2022-10-26T14:03:49;17.90;88.30
18388;DHT22;9320;50.256;19.026;2022-10-26T14:06:23;17.80;87.90
18388;DHT22;9320;50.256;19.026;2022-10-26T14:08:55;17.80;88.50
18388;DHT22;9320;50.256;19.026;2022-10-26T14:11:30;17.80;88.00
18388;DHT22;9320;50.256;19.026;2022-10-26T14:14:01;17.80;87.60
18388;DHT22;9320;50.256;19.026;2022-10-26T14:16:31;17.70;88.30
18388;DHT22;9320;50.256;19.026;2022-10-26T14:19:00;17.70;89.00
18388;DHT22;9320;50.256;19.026;2022-10-26T14:21:28;17.70;88.90
18388;DHT22;9320;50.256;19.026;2022-10-26T14:23:58;17.50;89.30
18388;DHT22;9320;50.256;19.026;2022-10-26T14:26:37;17.50;89.90
18388;DHT22;9320;50.256;19.026;2022-10-26T14:29:15;17.40;90.10
18388;DHT22;9320;50.256;19.026;2022-10-26T14:31:44;17.40;90.00
18388;DHT22;9320;50.256;19.026;2022-10-26T14:34:12;17.30;90.10
18388;DHT22;9320;50.256;19.026;2022-10-26T14:36:43;17.30;90.20
18388;DHT22;9320;50.256;19.026;2022-10-26T14:39:17;17.30;90.70
18388;DHT22;9320;50.256;19.026;2022-10-26T14:41:48;17.30;90.30
18388;DHT22;9320;50.256;19.026;2022-10-26T14:44:22;17.20;90.50
18388;DHT22;9320;50.256;19.026;2022-10-26T14:46:50;17.20;90.10
18388;DHT22;9320;50.256;19.026;2022-10-26T14:49:22;17.20;90.30
18388;DHT22;9320;50.256;19.026;2022-10-26T14:51:55;17.10;90.40
18388;DHT22;9320;50.256;19.026;2022-10-26T14:54:25;17.00;90.50
18388;DHT22;9320;50.256;19.026;2022-10-26T14:56:54;17.00;90.70
18388;DHT22;9320;50.256;19.026;2022-10-26T14:59:26;17.00;90.50
18388;DHT22;9320;50.256;19.026;2022-10-26T15:01:55;17.00;90.70
18388;DHT22;9320;50.256;19.026;2022-10-26T15:04:30;16.90;90.70
18388;DHT22;9320;50.256;19.026;2022-10-26T15:07:15;16.90;91.10
18388;DHT22;9320;50.256;19.026;2022-10-26T15:09:44;16.80;91.00
18388;DHT22;9320;50.256;19.026;2022-10-26T15:12:26;16.80;91.60
18388;DHT22;9320;50.256;19.026;2022-10-26T15:15:08;16.70;91.30
18388;DHT22;9320;50.256;19.026;2022-10-26T15:17:40;16.60;91.50
18388;DHT22;9320;50.256;19.026;2022-10-26T15:20:16;16.50;91.70
18388;DHT22;9320;50.256;19.026;2022-10-26T15:22:48;16.50;92.00
18388;DHT22;9320;50.256;19.026;2022-10-26T15:25:19;16.40;92.20
18388;DHT22;9320;50.256;19.026;2022-10-26T15:27:49;16.40;92.30
18388;DHT22;9320;50.256;19.026;2022-10-26T15:30:21;16.30;92.70
18388;DHT22;9320;50.256;19.026;2022-10-26T15:32:50;16.30;92.60
18388;DHT22;9320;50.256;19.026;2022-10-26T15:35:30;16.10;92.70
18388;DHT22;9320;50.256;19.026;2022-10-26T15:37:58;16.20;92.90
18388;DHT22;9320;50.256;19.026;2022-10-26T15:40:28;16.10;93.10
18388;DHT22;9320;50.256;19.026;2022-10-26T15:42:59;16.00;93.20
18388;DHT22;9320;50.256;19.026;2022-10-26T15:45:30;16.00;93.30
18388;DHT22;9320;50.256;19.026;2022-10-26T15:48:16;16.00;93.40
18388;DHT22;9320;50.256;19.026;2022-10-26T15:50:45;15.90;93.50
18388;DHT22;9320;50.256;19.026;2022-10-26T15:53:18;15.90;93.70
18388;DHT22;9320;50.256;19.026;2022-10-26T15:55:46;15.80;93.80
18388;DHT22;9320;50.256;19.026;2022-10-26T15:58:15;15.80;94.00
18388;DHT22;9320;50.256;19.026;2022-10-26T16:00:45;15.80;94.10
18388;DHT22;9320;50.256;19.026;2022-10-26T16:03:16;15.80;94.20
18388;DHT22;9320;50.256;19.026;2022-10-26T16:05:45;15.70;94.30
18388;DHT22;9320;50.256;19.026;2022-10-26T16:08:15;15.70;94.40
18388;DHT22;9320;50.256;19.026;2022-10-26T16:10:45;15.60;94.40
18388;DHT22;9320;50.256;19.026;2022-10-26T16:13:14;15.60;94.50
18388;DHT22;9320;50.256;19.026;2022-10-26T16:15:42;15.60;94.50
18388;DHT22;9320;50.256;19.026;2022-10-26T16:18:12;15.50;94.50
18388;DHT22;9320;50.256;19.026;2022-10-26T16:20:40;15.50;94.50